createdAt,value
2018-02-10T00:01:50.769Z,0.11
2018-02-10T00:04:19.676Z,0.08
2018-02-10T00:06:47.981Z,0.02
2018-02-10T00:09:16.315Z,0.01
2018-02-10T00:11:44.772Z,0.01
2018-02-10T00:14:13.887Z,0.08
2018-02-10T00:16:42.221Z,-0.08
2018-02-10T00:19:10.576Z,-0.16
2018-02-10T00:21:38.926Z,-0.24
2018-02-10T00:24:07.244Z,-0.15
2018-02-10T00:26:35.978Z,-0.16
2018-02-10T00:29:04.541Z,-0.11
2018-02-10T00:31:32.902Z,-0.08
2018-02-10T00:34:01.275Z,0.00
2018-02-10T00:36:30.413Z,-0.02
2018-02-10T00:38:59.306Z,-0.02
2018-02-10T00:41:27.716Z,-0.17
2018-02-10T00:43:56.090Z,-0.40
2018-02-10T00:46:24.437Z,-0.40
2018-02-10T00:48:53.273Z,-0.31
2018-02-10T00:51:21.643Z,-0.23
2018-02-10T00:53:50.851Z,-0.11
2018-02-10T00:56:19.212Z,-0.35
2018-02-10T00:58:47.540Z,-0.38
2018-02-10T01:01:15.957Z,-0.31
2018-02-10T01:03:44.351Z,-0.50
2018-02-10T01:06:12.756Z,-0.49
2018-02-10T01:08:41.179Z,-0.48
2018-02-10T01:11:10.028Z,-0.42
2018-02-10T01:13:38.421Z,-0.46
2018-02-10T01:16:07.507Z,-0.50
2018-02-10T01:18:36.633Z,-0.50
2018-02-10T01:21:04.969Z,-0.56
2018-02-10T01:23:33.376Z,-0.41
2018-02-10T01:26:02.545Z,-0.43
2018-02-10T01:28:30.925Z,-0.43
2018-02-10T01:30:59.307Z,-0.51
2018-02-10T01:33:27.877Z,-0.70
2018-02-10T01:35:56.183Z,-0.73
2018-02-10T01:38:25.283Z,-0.54
2018-02-10T01:40:54.384Z,-0.65
2018-02-10T01:43:23.482Z,-0.73
2018-02-10T01:45:52.561Z,-0.93
2018-02-10T01:48:20.916Z,-0.99
2018-02-10T01:50:49.228Z,-1.05
2018-02-10T01:53:18.300Z,-1.10
2018-02-10T01:55:46.808Z,-1.07
2018-02-10T01:58:15.143Z,-1.10
2018-02-10T02:00:43.489Z,-1.01
2018-02-10T02:03:11.814Z,-1.36
2018-02-10T02:05:40.124Z,-1.23
2018-02-10T02:08:08.596Z,-1.24
2018-02-10T02:10:37.715Z,-1.19
2018-02-10T02:13:06.071Z,-1.24
2018-02-10T02:15:35.308Z,-1.15
2018-02-10T02:18:03.845Z,-1.34
2018-02-10T02:20:32.162Z,-1.31
2018-02-10T02:23:00.481Z,-1.19
2018-02-10T02:25:28.823Z,-1.13
2018-02-10T02:27:57.144Z,-1.21
2018-02-10T02:30:25.477Z,-1.20
2018-02-10T02:32:53.844Z,-1.12
2018-02-10T02:35:22.181Z,-1.21
2018-02-10T02:37:50.509Z,-1.33
2018-02-10T02:40:18.940Z,-1.24
2018-02-10T02:42:47.382Z,-1.18
2018-02-10T02:45:15.691Z,-1.16
2018-02-10T02:47:44.008Z,-1.16
2018-02-10T02:50:13.070Z,-1.11
2018-02-10T02:52:41.393Z,-1.08
2018-02-10T02:55:09.759Z,-1.29
2018-02-10T02:57:38.070Z,-1.24
2018-02-10T03:00:06.404Z,-1.36
2018-02-10T03:02:34.935Z,-1.43
2018-02-10T03:05:03.260Z,-1.41
2018-02-10T03:07:31.592Z,-1.44
2018-02-10T03:10:00.010Z,-1.23
2018-02-10T03:12:28.354Z,-1.27
2018-02-10T03:14:56.675Z,-1.21
2018-02-10T03:17:25.209Z,-1.22
2018-02-10T03:19:53.556Z,-1.20
2018-02-10T03:22:21.895Z,-1.20
2018-02-10T03:24:51.121Z,-1.07
2018-02-10T03:27:20.258Z,-1.05
2018-02-10T03:29:48.677Z,-1.18
2018-02-10T03:32:17.369Z,-1.08
2018-02-10T03:34:45.726Z,-0.92
2018-02-10T03:37:14.171Z,-1.07
2018-02-10T03:39:42.630Z,-1.06
2018-02-10T03:42:10.974Z,-0.91
2018-02-10T03:44:39.355Z,-0.98
2018-02-10T03:47:08.267Z,-0.99
2018-02-10T03:49:36.636Z,-1.10
2018-02-10T03:52:05.024Z,-1.21
2018-02-10T03:54:33.392Z,-1.35
2018-02-10T03:57:01.739Z,-1.51
2018-02-10T03:59:30.090Z,-1.54
2018-02-10T04:01:58.539Z,-1.76
2018-02-10T04:04:26.929Z,-1.47
2018-02-10T04:06:55.266Z,-1.45
2018-02-10T04:09:23.814Z,-1.50
2018-02-10T04:11:52.984Z,-1.44
2018-02-10T04:14:21.367Z,-1.43
2018-02-10T04:16:49.812Z,-1.41
2018-02-10T04:19:18.187Z,-1.32
2018-02-10T04:21:46.512Z,-1.36
2018-02-10T04:24:15.910Z,-1.31
2018-02-10T04:26:45.084Z,-1.44
2018-02-10T04:29:13.736Z,-1.60
2018-02-10T04:31:42.323Z,-1.70
2018-02-10T04:34:10.636Z,-1.67
2018-02-10T04:36:39.001Z,-1.80
2018-02-10T04:39:07.405Z,-1.97
2018-02-10T04:41:35.773Z,-1.90
2018-02-10T04:44:04.162Z,-1.77
2018-02-10T04:46:32.532Z,-1.66
2018-02-10T04:49:00.903Z,-1.54
2018-02-10T04:51:29.265Z,-1.52
2018-02-10T04:53:58.186Z,-1.53
2018-02-10T04:56:26.611Z,-1.42
2018-02-10T04:58:55.093Z,-1.44
2018-02-10T05:01:23.436Z,-1.48
2018-02-10T05:03:51.808Z,-1.53
2018-02-10T05:06:20.163Z,-1.51
2018-02-10T05:08:48.568Z,-1.38
2018-02-10T05:11:16.888Z,-1.39
2018-02-10T05:13:45.219Z,-1.37
2018-02-10T05:16:14.051Z,-1.39
2018-02-10T05:18:42.392Z,-1.41
2018-02-10T05:21:10.778Z,-1.47
2018-02-10T05:23:39.236Z,-1.53
2018-02-10T05:26:07.593Z,-1.57
2018-02-10T05:28:36.015Z,-1.50
2018-02-10T05:31:04.606Z,-1.37
2018-02-10T05:33:33.048Z,-1.28
2018-02-10T05:36:01.566Z,-1.27
2018-02-10T05:38:30.046Z,-1.37
2018-02-10T05:40:58.396Z,-1.29
2018-02-10T05:43:26.814Z,-1.37
2018-02-10T05:45:56.077Z,-1.26
2018-02-10T05:48:24.493Z,-1.26
2018-02-10T05:50:52.842Z,-1.29
2018-02-10T05:53:21.241Z,-1.31
2018-02-10T05:55:49.621Z,-1.39
2018-02-10T05:58:18.043Z,-1.39
2018-02-10T06:00:46.789Z,-1.44
2018-02-10T06:03:15.164Z,-1.87
2018-02-10T06:05:43.516Z,-2.00
2018-02-10T06:08:11.855Z,-2.01
2018-02-10T06:10:40.954Z,-1.85
2018-02-10T06:13:10.120Z,-1.83
2018-02-10T06:15:38.614Z,-1.86
2018-02-10T06:18:07.071Z,-1.86
2018-02-10T06:20:35.388Z,-2.00
2018-02-10T06:23:04.028Z,-2.19
2018-02-10T06:25:32.452Z,-2.34
2018-02-10T06:28:01.565Z,-2.39
2018-02-10T06:30:30.008Z,-2.21
2018-02-10T06:32:59.208Z,-2.23
2018-02-10T06:35:27.578Z,-2.33
2018-02-10T06:37:55.940Z,-2.45
2018-02-10T06:40:24.350Z,-2.44
2018-02-10T06:42:53.485Z,-2.29
2018-02-10T06:45:22.228Z,-2.30
2018-02-10T06:47:50.581Z,-2.48
2018-02-10T06:50:18.926Z,-2.52
2018-02-10T06:52:47.370Z,-2.56
2018-02-10T06:55:15.721Z,-2.80
2018-02-10T06:57:44.142Z,-2.88
2018-02-10T07:00:13.328Z,-2.72
2018-02-10T07:02:41.658Z,-2.69
2018-02-10T07:05:09.992Z,-2.64
2018-02-10T07:07:39.200Z,-2.53
2018-02-10T07:10:07.541Z,-2.46
2018-02-10T07:12:35.868Z,-2.36
2018-02-10T07:15:05.010Z,-2.19
2018-02-10T07:17:33.325Z,-2.18
2018-02-10T07:20:02.496Z,-2.01
2018-02-10T07:22:31.668Z,-2.04
2018-02-10T07:25:00.077Z,-2.12
2018-02-10T07:27:28.398Z,-1.55
2018-02-10T07:29:57.391Z,-1.33
2018-02-10T07:32:25.747Z,-1.22
2018-02-10T07:34:54.125Z,-0.83
2018-02-10T07:37:23.266Z,-0.25
2018-02-10T07:39:51.652Z,0.07
2018-02-10T07:42:19.978Z,0.49
2018-02-10T07:44:48.358Z,0.82
2018-02-10T07:47:16.712Z,1.13
2018-02-10T07:49:45.038Z,0.80
2018-02-10T07:52:13.913Z,0.80
2018-02-10T07:54:42.251Z,1.26
2018-02-10T07:57:10.587Z,1.66
2018-02-10T07:59:38.955Z,2.27
2018-02-10T08:02:08.017Z,2.79
2018-02-10T08:04:36.352Z,2.53
2018-02-10T08:07:04.703Z,2.87
2018-02-10T08:09:33.791Z,3.27
2018-02-10T08:12:02.141Z,3.30
2018-02-10T08:14:30.881Z,3.99
2018-02-10T08:16:59.208Z,4.65
2018-02-10T08:19:27.529Z,4.80
2018-02-10T08:21:56.639Z,5.45
2018-02-10T08:24:25.656Z,5.40
2018-02-10T08:26:53.976Z,5.60
2018-02-10T08:29:22.326Z,6.65
2018-02-10T08:31:50.629Z,6.96
2018-02-10T08:34:18.948Z,7.98
2018-02-10T08:36:47.433Z,8.62
2018-02-10T08:39:15.807Z,8.46
2018-02-10T08:41:44.145Z,8.48
2018-02-10T08:44:12.504Z,10.12
2018-02-10T08:46:40.835Z,10.44
2018-02-10T08:49:09.187Z,10.43
2018-02-10T08:51:37.530Z,10.28
2018-02-10T08:54:05.877Z,10.73
2018-02-10T08:56:34.224Z,12.41
2018-02-10T08:59:02.912Z,12.13
2018-02-10T09:01:31.322Z,12.81
2018-02-10T09:03:59.596Z,11.71
2018-02-10T09:06:27.967Z,12.88
2018-02-10T09:08:57.068Z,12.50
2018-02-10T09:11:25.392Z,12.00
2018-02-10T09:13:53.748Z,12.85
2018-02-10T09:16:22.087Z,12.27
2018-02-10T09:18:50.428Z,11.65
2018-02-10T09:21:19.068Z,13.50
2018-02-10T09:23:47.427Z,13.08
2018-02-10T09:26:16.536Z,14.12
2018-02-10T09:28:45.684Z,14.26
2018-02-10T09:31:13.996Z,15.84
2018-02-10T09:33:42.341Z,15.46
2018-02-10T09:36:10.712Z,14.97
2018-02-10T09:38:39.066Z,14.68
2018-02-10T09:41:07.458Z,15.74
2018-02-10T09:43:36.400Z,15.63
2018-02-10T09:46:04.806Z,16.73
2018-02-10T09:48:33.901Z,17.72
2018-02-10T09:51:02.996Z,16.69
2018-02-10T09:53:48.701Z,17.81
2018-02-10T09:56:17.117Z,16.14
2018-02-10T09:58:46.321Z,17.31
2018-02-10T10:01:14.758Z,18.83
2018-02-10T10:03:43.651Z,18.12
2018-02-10T10:06:11.963Z,16.76
2018-02-10T10:08:40.309Z,17.38
2018-02-10T10:11:08.666Z,17.57
2018-02-10T10:13:37.744Z,19.62
2018-02-10T10:16:06.072Z,19.43
2018-02-10T10:18:34.479Z,19.79
2018-02-10T10:21:02.831Z,20.12
2018-02-10T10:23:31.165Z,20.32
2018-02-10T10:26:00.713Z,20.79
2018-02-10T10:28:29.060Z,19.33
2018-02-10T10:30:58.204Z,20.00
2018-02-10T10:33:26.567Z,20.50
2018-02-10T10:35:54.983Z,21.69
2018-02-10T10:38:23.382Z,22.62
2018-02-10T10:40:52.531Z,22.95
2018-02-10T10:43:21.425Z,21.86
2018-02-10T10:45:49.793Z,20.24
2018-02-10T10:48:18.256Z,19.26
2018-02-10T10:50:48.220Z,17.29
2018-02-10T10:53:16.561Z,18.13
2018-02-10T10:55:45.047Z,18.33
2018-02-10T10:58:13.416Z,16.97
2018-02-10T11:00:41.760Z,14.73
2018-02-10T11:03:10.140Z,15.79
2018-02-10T11:05:38.508Z,16.31
2018-02-10T11:08:06.886Z,18.33
2018-02-10T11:10:35.436Z,19.71
2018-02-10T11:13:03.798Z,20.75
2018-02-10T11:15:32.144Z,22.59
2018-02-10T11:18:00.494Z,23.26
2018-02-10T11:20:28.812Z,20.68
2018-02-10T11:22:57.953Z,19.50
2018-02-10T11:25:26.411Z,18.07
2018-02-10T11:27:55.525Z,16.60
2018-02-10T11:30:23.887Z,14.85
2018-02-10T11:32:52.650Z,14.80
2018-02-10T11:35:20.977Z,14.14
2018-02-10T11:37:49.368Z,16.27
2018-02-10T11:40:17.787Z,18.15
2018-02-10T11:42:46.224Z,19.23
2018-02-10T11:45:14.657Z,20.60
2018-02-10T11:47:43.053Z,21.14
2018-02-10T11:50:11.400Z,22.15
2018-02-10T11:52:39.853Z,22.88
2018-02-10T11:55:08.489Z,23.00
2018-02-10T11:57:37.560Z,20.98
2018-02-10T12:00:05.875Z,20.21
2018-02-10T12:02:34.221Z,18.44
2018-02-10T12:05:02.758Z,19.94
2018-02-10T12:07:31.087Z,21.34
2018-02-10T12:10:00.281Z,22.31
2018-02-10T12:12:29.445Z,23.74
2018-02-10T12:14:57.786Z,25.57
2018-02-10T12:17:26.366Z,23.42
2018-02-10T12:19:55.476Z,23.51
2018-02-10T12:22:23.811Z,23.41
2018-02-10T12:24:52.175Z,21.25
2018-02-10T12:27:20.531Z,20.80
2018-02-10T12:29:48.851Z,21.66
2018-02-10T12:32:17.247Z,22.06
2018-02-10T12:34:46.628Z,21.63
2018-02-10T12:37:14.973Z,20.29
2018-02-10T12:39:43.429Z,19.61
2018-02-10T12:42:11.771Z,17.40
2018-02-10T12:44:40.242Z,16.86
2018-02-10T12:47:08.588Z,16.00
2018-02-10T12:49:36.900Z,18.27
2018-02-10T12:52:05.235Z,18.02
2018-02-10T12:54:33.616Z,19.45
2018-02-10T12:57:01.929Z,20.57
2018-02-10T12:59:30.238Z,20.77
2018-02-10T13:01:58.930Z,19.17
2018-02-10T13:04:27.374Z,15.17
2018-02-10T13:06:55.733Z,13.51
2018-02-10T13:09:24.607Z,13.41
2018-02-10T13:11:52.955Z,13.09
2018-02-10T13:14:22.087Z,12.97
2018-02-10T13:16:50.449Z,12.53
2018-02-10T13:19:18.765Z,11.97
2018-02-10T13:21:47.134Z,11.95
2018-02-10T13:24:15.751Z,11.84
2018-02-10T13:26:44.111Z,12.09
2018-02-10T13:29:12.474Z,10.91
2018-02-10T13:31:40.832Z,10.50
2018-02-10T13:34:09.145Z,9.88
2018-02-10T13:36:37.464Z,10.05
2018-02-10T13:39:05.822Z,9.68
2018-02-10T13:41:34.168Z,9.62
2018-02-10T13:44:02.501Z,9.46
2018-02-10T13:46:31.269Z,9.14
2018-02-10T13:48:59.615Z,8.69
2018-02-10T13:51:27.944Z,8.71
2018-02-10T13:53:57.072Z,8.56
2018-02-10T13:56:25.384Z,8.31
2018-02-10T13:58:53.754Z,8.52
2018-02-10T14:01:22.109Z,8.16
2018-02-10T14:03:50.459Z,8.51
2018-02-10T14:06:19.560Z,8.55
2018-02-10T14:08:49.188Z,8.44
2018-02-10T14:11:17.542Z,7.99
2018-02-10T14:13:45.836Z,7.98
2018-02-10T14:16:14.272Z,7.87
2018-02-10T14:18:42.639Z,7.75
2018-02-10T14:21:10.998Z,7.62
2018-02-10T14:23:40.292Z,7.23
2018-02-10T14:26:08.638Z,7.04
2018-02-10T14:28:37.789Z,6.78
2018-02-10T14:31:07.628Z,6.42
2018-02-10T14:33:35.942Z,6.96
2018-02-10T14:36:05.013Z,7.02
2018-02-10T14:38:33.368Z,6.76
2018-02-10T14:41:01.763Z,6.77
2018-02-10T14:43:30.106Z,6.83
2018-02-10T14:45:58.465Z,6.60
2018-02-10T14:48:26.776Z,6.98
2018-02-10T14:50:55.895Z,7.30
2018-02-10T14:53:24.335Z,7.08
2018-02-10T14:55:52.645Z,6.69
2018-02-10T14:58:20.975Z,6.75
2018-02-10T15:00:49.360Z,6.52
2018-02-10T15:03:17.721Z,6.24
2018-02-10T15:05:46.040Z,6.16
2018-02-10T15:08:14.423Z,6.43
2018-02-10T15:10:42.812Z,6.33
2018-02-10T15:13:11.198Z,6.74
2018-02-10T15:15:39.831Z,6.88
2018-02-10T15:18:08.336Z,7.03
2018-02-10T15:20:36.681Z,6.68
2018-02-10T15:23:05.820Z,6.52
2018-02-10T15:25:34.166Z,6.50
2018-02-10T15:28:02.573Z,6.50
2018-02-10T15:30:49.060Z,6.36
2018-02-10T15:33:35.098Z,6.03
2018-02-10T15:36:03.439Z,6.25
2018-02-10T15:38:31.782Z,6.17
2018-02-10T15:41:00.892Z,6.12
2018-02-10T15:43:29.260Z,6.08
2018-02-10T15:48:25.965Z,6.06
2018-02-10T15:50:54.501Z,5.80
2018-02-10T15:53:23.642Z,5.63
2018-02-10T15:55:51.973Z,5.51
2018-02-10T15:58:20.301Z,5.43
2018-02-10T16:00:48.647Z,5.85
2018-02-10T16:03:16.957Z,5.71
2018-02-10T16:05:45.342Z,5.86
2018-02-10T16:08:13.690Z,5.87
2018-02-10T16:10:42.027Z,5.70
2018-02-10T16:13:10.748Z,5.80
2018-02-10T16:15:40.072Z,5.49
2018-02-10T16:18:08.725Z,5.56
2018-02-10T16:20:37.874Z,5.49
2018-02-10T16:23:06.364Z,5.49
2018-02-10T16:25:35.668Z,5.42
2018-02-10T16:28:04.079Z,5.60
2018-02-10T16:30:32.432Z,5.79
2018-02-10T16:33:00.770Z,5.44
2018-02-10T16:35:29.346Z,5.65
2018-02-10T16:37:57.719Z,5.38
2018-02-10T16:40:26.056Z,5.59
2018-02-10T16:42:54.452Z,5.27
2018-02-10T16:45:22.781Z,5.14
2018-02-10T16:47:51.106Z,5.33
2018-02-10T16:50:19.454Z,5.11
2018-02-10T16:52:47.804Z,5.19
2018-02-10T16:55:16.188Z,4.98
2018-02-10T16:57:44.803Z,5.23
2018-02-10T17:00:13.138Z,5.22
2018-02-10T17:02:41.685Z,5.51
2018-02-10T17:05:10.069Z,5.50
2018-02-10T17:07:38.409Z,5.56
2018-02-10T17:10:06.820Z,5.70
2018-02-10T17:12:35.175Z,5.19
2018-02-10T17:15:03.572Z,5.19
2018-02-10T17:17:31.909Z,5.06
2018-02-10T17:20:00.525Z,5.00
2018-02-10T17:22:28.863Z,5.07
2018-02-10T17:24:57.215Z,4.90
2018-02-10T17:27:26.383Z,4.63
2018-02-10T17:29:54.731Z,4.97
2018-02-10T17:32:23.074Z,5.17
2018-02-10T17:34:52.277Z,5.10
2018-02-10T17:37:20.638Z,4.82
2018-02-10T17:39:49.086Z,4.91
2018-02-10T17:42:18.501Z,4.82
2018-02-10T17:44:46.871Z,4.90
2018-02-10T17:47:15.225Z,4.63
2018-02-10T17:49:43.601Z,4.63
2018-02-10T17:52:12.006Z,4.66
2018-02-10T17:54:40.359Z,4.69
2018-02-10T17:57:08.812Z,4.79
2018-02-10T17:59:37.167Z,4.88
2018-02-10T18:02:06.312Z,4.92
2018-02-10T18:04:36.051Z,5.31
2018-02-10T18:07:04.387Z,5.09
2018-02-10T18:09:33.496Z,4.96
2018-02-10T18:12:01.846Z,4.82
2018-02-10T18:14:30.215Z,4.88
2018-02-10T18:16:58.556Z,4.84
2018-02-10T18:19:26.917Z,4.79
2018-02-10T18:21:55.257Z,4.70
2018-02-10T18:24:23.605Z,4.81
2018-02-10T18:29:31.716Z,4.82
2018-02-10T18:32:00.105Z,4.92
2018-02-10T18:34:28.482Z,4.93
2018-02-10T18:36:56.820Z,4.85
2018-02-10T18:39:25.177Z,5.11
2018-02-10T18:41:53.501Z,5.10
2018-02-10T18:44:21.878Z,5.14
2018-02-10T18:46:50.425Z,5.06
2018-02-10T18:49:18.782Z,4.67
2018-02-10T18:51:47.131Z,4.95
2018-02-10T18:54:15.785Z,5.06
2018-02-10T18:56:44.911Z,5.03
2018-02-10T18:59:13.236Z,4.95
2018-02-10T19:01:41.586Z,5.12
2018-02-10T19:04:10.031Z,4.82
2018-02-10T19:06:38.433Z,5.09
2018-02-10T19:09:07.104Z,4.80
2018-02-10T19:11:35.421Z,4.97
2018-02-10T19:14:03.783Z,4.68
2018-02-10T19:16:32.255Z,4.57
2018-02-10T19:19:00.619Z,4.75
2018-02-10T19:21:29.006Z,4.79
2018-02-10T19:23:57.368Z,4.99
2018-02-10T19:26:25.746Z,5.00
2018-02-10T19:28:54.206Z,4.93
2018-02-10T19:31:23.664Z,4.86
2018-02-10T19:33:52.050Z,4.86
2018-02-10T19:36:21.298Z,4.81
2018-02-10T19:38:49.732Z,4.93
2018-02-10T19:41:18.114Z,5.06
2018-02-10T19:43:46.478Z,4.86
2018-02-10T19:46:14.859Z,4.92
2018-02-10T19:48:43.185Z,4.76
2018-02-10T19:51:11.530Z,4.76
2018-02-10T19:53:40.117Z,4.81
2018-02-10T19:56:08.425Z,4.73
2018-02-10T19:58:36.791Z,4.63
2018-02-10T20:01:05.159Z,4.70
2018-02-10T20:03:33.570Z,4.45
2018-02-10T20:06:01.940Z,4.52
2018-02-10T20:08:30.363Z,4.57
2018-02-10T20:10:58.749Z,4.50
2018-02-10T20:13:27.085Z,4.30
2018-02-10T20:15:55.917Z,4.30
2018-02-10T20:18:24.272Z,4.43
2018-02-10T20:20:52.620Z,4.54
2018-02-10T20:23:21.083Z,4.38
2018-02-10T20:25:49.656Z,4.73
2018-02-10T20:28:18.008Z,4.67
2018-02-10T20:30:46.381Z,4.76
2018-02-10T20:33:14.759Z,4.70
2018-02-10T20:35:43.874Z,4.77
2018-02-10T20:38:12.825Z,4.68
2018-02-10T20:40:41.225Z,4.72
2018-02-10T20:43:09.593Z,4.78
2018-02-10T20:45:38.315Z,4.69
2018-02-10T20:48:06.807Z,4.99
2018-02-10T20:50:35.127Z,4.91
2018-02-10T20:53:04.280Z,4.76
2018-02-10T20:55:32.672Z,4.63
2018-02-10T20:58:01.007Z,4.68
2018-02-10T21:00:30.468Z,4.68
2018-02-10T21:02:58.956Z,4.49
2018-02-10T21:05:28.208Z,4.48
2018-02-10T21:07:56.557Z,4.54
2018-02-10T21:10:25.650Z,4.78
2018-02-10T21:12:54.773Z,4.80
2018-02-10T21:15:23.289Z,4.72
2018-02-10T21:17:51.682Z,4.63
2018-02-10T21:20:20.088Z,4.65
2018-02-10T21:22:48.561Z,4.69
2018-02-10T21:25:16.897Z,4.83
2018-02-10T21:27:45.273Z,4.69
2018-02-10T21:30:13.653Z,4.61
2018-02-10T21:32:41.985Z,4.43
2018-02-10T21:35:11.069Z,4.62
2018-02-10T21:37:39.452Z,4.67
2018-02-10T21:40:08.594Z,4.49
2018-02-10T21:42:36.968Z,4.54
2018-02-10T21:45:05.449Z,4.64
2018-02-10T21:47:33.873Z,4.56
2018-02-10T21:50:02.252Z,4.54
2018-02-10T21:52:30.730Z,4.75
2018-02-10T21:54:59.128Z,4.70
2018-02-10T21:57:27.476Z,4.74
2018-02-10T21:59:55.813Z,4.81
2018-02-10T22:02:24.134Z,4.82
2018-02-10T22:04:52.557Z,4.81
2018-02-10T22:07:22.188Z,4.74
2018-02-10T22:09:51.292Z,4.65
2018-02-10T22:12:19.609Z,4.58
2018-02-10T22:14:47.995Z,4.63
2018-02-10T22:17:16.348Z,4.65
2018-02-10T22:19:44.725Z,4.67
2018-02-10T22:22:13.108Z,4.62
2018-02-10T22:24:41.448Z,4.79
2018-02-10T22:27:10.561Z,4.78
2018-02-10T22:29:39.227Z,4.54
2018-02-10T22:32:08.318Z,4.33
2018-02-10T22:34:36.702Z,4.50
2018-02-10T22:37:05.835Z,4.45
2018-02-10T22:39:34.232Z,4.53
2018-02-10T22:42:02.599Z,4.70
2018-02-10T22:44:31.025Z,4.57
2018-02-10T22:46:59.365Z,4.80
2018-02-10T22:49:27.698Z,4.75
2018-02-10T22:51:56.327Z,4.70
2018-02-10T22:54:24.669Z,4.78
2018-02-10T22:56:53.089Z,4.74
2018-02-10T22:59:21.463Z,4.68
2018-02-10T23:01:49.830Z,4.75
2018-02-10T23:04:18.175Z,4.64
2018-02-10T23:06:46.581Z,4.49
2018-02-10T23:09:14.937Z,4.50
2018-02-10T23:11:43.283Z,4.41
2018-02-10T23:14:12.107Z,4.43
2018-02-10T23:16:41.277Z,4.73
2018-02-10T23:19:09.676Z,4.56
2018-02-10T23:21:38.980Z,4.31
2018-02-10T23:24:07.361Z,4.61
2018-02-10T23:26:36.558Z,4.93
2018-02-10T23:29:05.728Z,4.99
2018-02-10T23:31:34.056Z,5.02
2018-02-10T23:34:02.423Z,4.64
2018-02-10T23:36:31.913Z,4.51
2018-02-10T23:39:00.253Z,4.60
2018-02-10T23:41:28.702Z,4.68
2018-02-10T23:43:57.107Z,4.73
2018-02-10T23:46:25.428Z,4.70
2018-02-10T23:48:53.762Z,4.78
2018-02-10T23:51:22.145Z,4.77
2018-02-10T23:53:50.517Z,4.88
2018-02-10T23:56:19.726Z,4.69
2018-02-10T23:58:48.449Z,4.66
